sensor_id;sensor_type;location;lat;lon;timestamp;P1;durP1;ratioP1;P2;durP2;ratioP2
6013;SDS011;3035;49.928;8.410;2023-10-09T00:00:14;15.20;;;4.87;;
6013;SDS011;3035;49.928;8.410;2023-10-09T00:02:48;15.23;;;4.33;;
6013;SDS011;3035;49.928;8.410;2023-10-09T00:05:17;12.33;;;5.03;;
6013;SDS011;3035;49.928;8.410;2023-10-09T00:07:46;13.33;;;4.57;;
6013;SDS011;3035;49.928;8.410;2023-10-09T00:10:14;12.93;;;5.07;;
6013;SDS011;3035;49.928;8.410;2023-10-09T00:12:44;8.60;;;4.30;;
6013;SDS011;3035;49.928;8.410;2023-10-09T00:15:12;16.20;;;5.07;;
6013;SDS011;3035;49.928;8.410;2023-10-09T00:17:41;9.23;;;4.67;;
6013;SDS011;3035;49.928;8.410;2023-10-09T00:20:09;11.13;;;3.87;;
6013;SDS011;3035;49.928;8.410;2023-10-09T00:22:38;8.00;;;4.30;;
6013;SDS011;3035;49.928;8.410;2023-10-09T00:25:06;15.73;;;4.47;;
6013;SDS011;3035;49.928;8.410;2023-10-09T00:27:38;11.27;;;3.93;;
6013;SDS011;3035;49.928;8.410;2023-10-09T00:30:06;7.07;;;4.30;;
6013;SDS011;3035;49.928;8.410;2023-10-09T00:32:34;5.90;;;3.87;;
6013;SDS011;3035;49.928;8.410;2023-10-09T00:35:03;8.50;;;4.60;;
6013;SDS011;3035;49.928;8.410;2023-10-09T00:37:36;9.83;;;4.07;;
6013;SDS011;3035;49.928;8.410;2023-10-09T00:40:05;12.20;;;4.10;;
6013;SDS011;3035;49.928;8.410;2023-10-09T00:42:36;4.80;;;3.77;;
6013;SDS011;3035;49.928;8.410;2023-10-09T00:45:04;8.10;;;4.07;;
6013;SDS011;3035;49.928;8.410;2023-10-09T00:47:35;6.67;;;3.57;;
6013;SDS011;3035;49.928;8.410;2023-10-09T00:50:05;16.53;;;5.40;;
6013;SDS011;3035;49.928;8.410;2023-10-09T00:52:38;14.07;;;4.40;;
6013;SDS011;3035;49.928;8.410;2023-10-09T00:55:07;7.50;;;3.57;;
6013;SDS011;3035;49.928;8.410;2023-10-09T00:57:41;10.50;;;4.20;;
6013;SDS011;3035;49.928;8.410;2023-10-09T01:00:10;9.70;;;4.37;;
6013;SDS011;3035;49.928;8.410;2023-10-09T01:02:39;10.10;;;3.80;;
6013;SDS011;3035;49.928;8.410;2023-10-09T01:05:07;10.27;;;4.07;;
6013;SDS011;3035;49.928;8.410;2023-10-09T01:07:37;13.13;;;4.93;;
6013;SDS011;3035;49.928;8.410;2023-10-09T01:10:06;6.53;;;3.93;;
6013;SDS011;3035;49.928;8.410;2023-10-09T01:12:34;11.80;;;4.50;;
6013;SDS011;3035;49.928;8.410;2023-10-09T01:15:03;6.93;;;3.80;;
6013;SDS011;3035;49.928;8.410;2023-10-09T01:17:31;7.40;;;4.40;;
6013;SDS011;3035;49.928;8.410;2023-10-09T01:20:02;5.37;;;3.43;;
6013;SDS011;3035;49.928;8.410;2023-10-09T01:22:31;9.83;;;3.87;;
6013;SDS011;3035;49.928;8.410;2023-10-09T01:24:59;19.63;;;4.17;;
6013;SDS011;3035;49.928;8.410;2023-10-09T01:27:27;11.53;;;3.77;;
6013;SDS011;3035;49.928;8.410;2023-10-09T01:29:55;5.20;;;3.83;;
6013;SDS011;3035;49.928;8.410;2023-10-09T01:32:24;10.83;;;4.10;;
6013;SDS011;3035;49.928;8.410;2023-10-09T01:34:52;5.50;;;3.33;;
6013;SDS011;3035;49.928;8.410;2023-10-09T01:37:20;5.20;;;3.40;;
6013;SDS011;3035;49.928;8.410;2023-10-09T01:39:50;10.90;;;4.00;;
6013;SDS011;3035;49.928;8.410;2023-10-09T01:42:19;5.93;;;3.70;;
6013;SDS011;3035;49.928;8.410;2023-10-09T01:44:51;13.37;;;4.73;;
6013;SDS011;3035;49.928;8.410;2023-10-09T01:47:20;7.57;;;3.83;;
6013;SDS011;3035;49.928;8.410;2023-10-09T01:49:48;8.00;;;3.67;;
6013;SDS011;3035;49.928;8.410;2023-10-09T01:52:16;6.13;;;4.17;;
6013;SDS011;3035;49.928;8.410;2023-10-09T01:54:45;17.70;;;4.37;;
6013;SDS011;3035;49.928;8.410;2023-10-09T01:57:14;7.83;;;3.97;;
6013;SDS011;3035;49.928;8.410;2023-10-09T01:59:43;11.40;;;4.73;;
6013;SDS011;3035;49.928;8.410;2023-10-09T02:02:11;7.73;;;4.33;;
6013;SDS011;3035;49.928;8.410;2023-10-09T02:04:56;6.70;;;4.70;;
6013;SDS011;3035;49.928;8.410;2023-10-09T02:07:38;8.00;;;4.73;;
6013;SDS011;3035;49.928;8.410;2023-10-09T02:10:08;12.10;;;4.60;;
6013;SDS011;3035;49.928;8.410;2023-10-09T02:12:36;7.93;;;4.43;;
6013;SDS011;3035;49.928;8.410;2023-10-09T02:15:05;11.43;;;4.70;;
6013;SDS011;3035;49.928;8.410;2023-10-09T02:17:34;9.00;;;4.60;;
6013;SDS011;3035;49.928;8.410;2023-10-09T02:20:02;12.50;;;3.93;;
6013;SDS011;3035;49.928;8.410;2023-10-09T02:22:30;6.50;;;4.20;;
6013;SDS011;3035;49.928;8.410;2023-10-09T02:24:58;12.73;;;3.93;;
6013;SDS011;3035;49.928;8.410;2023-10-09T02:27:26;8.37;;;4.13;;
6013;SDS011;3035;49.928;8.410;2023-10-09T02:30:00;26.47;;;4.00;;
6013;SDS011;3035;49.928;8.410;2023-10-09T02:32:28;14.50;;;4.43;;
6013;SDS011;3035;49.928;8.410;2023-10-09T02:34:56;8.43;;;4.10;;
6013;SDS011;3035;49.928;8.410;2023-10-09T02:37:25;8.60;;;4.07;;
6013;SDS011;3035;49.928;8.410;2023-10-09T02:39:53;6.40;;;4.00;;
6013;SDS011;3035;49.928;8.410;2023-10-09T02:42:21;6.77;;;2.97;;
6013;SDS011;3035;49.928;8.410;2023-10-09T02:44:50;9.07;;;4.10;;
6013;SDS011;3035;49.928;8.410;2023-10-09T02:47:19;10.80;;;5.00;;
6013;SDS011;3035;49.928;8.410;2023-10-09T02:49:47;6.40;;;3.30;;
6013;SDS011;3035;49.928;8.410;2023-10-09T02:52:17;8.73;;;3.60;;
6013;SDS011;3035;49.928;8.410;2023-10-09T02:54:46;4.80;;;3.43;;
6013;SDS011;3035;49.928;8.410;2023-10-09T02:57:14;13.23;;;3.30;;
6013;SDS011;3035;49.928;8.410;2023-10-09T02:59:51;4.53;;;3.93;;
6013;SDS011;3035;49.928;8.410;2023-10-09T03:02:20;5.77;;;3.40;;
6013;SDS011;3035;49.928;8.410;2023-10-09T03:04:48;16.03;;;3.57;;
6013;SDS011;3035;49.928;8.410;2023-10-09T03:07:17;13.90;;;3.70;;
6013;SDS011;3035;49.928;8.410;2023-10-09T03:09:46;12.60;;;3.47;;
6013;SDS011;3035;49.928;8.410;2023-10-09T03:12:15;9.77;;;4.00;;
6013;SDS011;3035;49.928;8.410;2023-10-09T03:14:44;16.37;;;4.40;;
6013;SDS011;3035;49.928;8.410;2023-10-09T03:17:12;9.93;;;4.23;;
6013;SDS011;3035;49.928;8.410;2023-10-09T03:19:42;18.47;;;4.90;;
6013;SDS011;3035;49.928;8.410;2023-10-09T03:22:10;7.93;;;4.87;;
6013;SDS011;3035;49.928;8.410;2023-10-09T03:24:39;13.43;;;5.53;;
6013;SDS011;3035;49.928;8.410;2023-10-09T03:27:07;8.83;;;4.60;;
6013;SDS011;3035;49.928;8.410;2023-10-09T03:29:37;19.57;;;5.43;;
6013;SDS011;3035;49.928;8.410;2023-10-09T03:32:06;26.30;;;5.37;;
6013;SDS011;3035;49.928;8.410;2023-10-09T03:34:34;13.03;;;5.07;;
6013;SDS011;3035;49.928;8.410;2023-10-09T03:37:02;11.70;;;5.80;;
6013;SDS011;3035;49.928;8.410;2023-10-09T03:39:31;15.43;;;6.17;;
6013;SDS011;3035;49.928;8.410;2023-10-09T03:42:13;13.37;;;5.40;;
6013;SDS011;3035;49.928;8.410;2023-10-09T03:44:46;8.20;;;4.50;;
6013;SDS011;3035;49.928;8.410;2023-10-09T03:47:14;11.73;;;5.70;;
6013;SDS011;3035;49.928;8.410;2023-10-09T03:49:43;13.23;;;4.33;;
6013;SDS011;3035;49.928;8.410;2023-10-09T03:52:11;12.23;;;6.13;;
6013;SDS011;3035;49.928;8.410;2023-10-09T03:54:39;11.50;;;5.47;;
6013;SDS011;3035;49.928;8.410;2023-10-09T03:57:08;10.50;;;5.93;;
6013;SDS011;3035;49.928;8.410;2023-10-09T03:59:36;14.90;;;6.70;;
6013;SDS011;3035;49.928;8.410;2023-10-09T04:02:05;8.30;;;5.40;;
6013;SDS011;3035;49.928;8.410;2023-10-09T04:04:34;12.03;;;5.73;;
6013;SDS011;3035;49.928;8.410;2023-10-09T04:07:02;11.67;;;5.80;;
6013;SDS011;3035;49.928;8.410;2023-10-09T04:09:31;14.17;;;4.70;;
6013;SDS011;3035;49.928;8.410;2023-10-09T04:12:09;16.00;;;5.83;;
6013;SDS011;3035;49.928;8.410;2023-10-09T04:14:40;12.70;;;6.07;;
6013;SDS011;3035;49.928;8.410;2023-10-09T04:17:15;12.90;;;5.60;;
6013;SDS011;3035;49.928;8.410;2023-10-09T04:20:05;16.03;;;7.00;;
6013;SDS011;3035;49.928;8.410;2023-10-09T04:22:40;14.00;;;6.33;;
6013;SDS011;3035;49.928;8.410;2023-10-09T04:25:18;15.93;;;6.10;;
6013;SDS011;3035;49.928;8.410;2023-10-09T04:27:53;11.73;;;6.93;;
6013;SDS011;3035;49.928;8.410;2023-10-09T04:30:20;12.33;;;6.47;;
6013;SDS011;3035;49.928;8.410;2023-10-09T04:32:48;9.77;;;6.60;;
6013;SDS011;3035;49.928;8.410;2023-10-09T04:35:17;8.40;;;6.50;;
6013;SDS011;3035;49.928;8.410;2023-10-09T04:37:46;14.30;;;6.10;;
6013;SDS011;3035;49.928;8.410;2023-10-09T04:40:14;16.97;;;7.10;;
6013;SDS011;3035;49.928;8.410;2023-10-09T04:42:42;14.43;;;6.87;;
6013;SDS011;3035;49.928;8.410;2023-10-09T04:45:13;16.57;;;6.00;;
6013;SDS011;3035;49.928;8.410;2023-10-09T04:47:48;13.00;;;7.13;;
6013;SDS011;3035;49.928;8.410;2023-10-09T04:50:17;16.33;;;7.93;;
6013;SDS011;3035;49.928;8.410;2023-10-09T04:52:51;18.33;;;7.50;;
6013;SDS011;3035;49.928;8.410;2023-10-09T04:55:20;11.83;;;6.60;;
6013;SDS011;3035;49.928;8.410;2023-10-09T04:57:48;13.87;;;8.00;;
6013;SDS011;3035;49.928;8.410;2023-10-09T05:00:21;15.13;;;7.20;;
6013;SDS011;3035;49.928;8.410;2023-10-09T05:02:50;15.30;;;6.83;;
6013;SDS011;3035;49.928;8.410;2023-10-09T05:05:22;25.93;;;8.53;;
6013;SDS011;3035;49.928;8.410;2023-10-09T05:08:10;13.90;;;7.13;;
6013;SDS011;3035;49.928;8.410;2023-10-09T05:10:45;14.57;;;8.10;;
6013;SDS011;3035;49.928;8.410;2023-10-09T05:13:21;17.30;;;8.40;;
6013;SDS011;3035;49.928;8.410;2023-10-09T05:15:49;22.43;;;7.27;;
6013;SDS011;3035;49.928;8.410;2023-10-09T05:18:17;22.23;;;8.47;;
6013;SDS011;3035;49.928;8.410;2023-10-09T05:20:46;17.03;;;7.10;;
6013;SDS011;3035;49.928;8.410;2023-10-09T05:23:30;15.60;;;7.60;;
6013;SDS011;3035;49.928;8.410;2023-10-09T05:25:58;20.50;;;7.43;;
6013;SDS011;3035;49.928;8.410;2023-10-09T05:28:26;14.50;;;8.30;;
6013;SDS011;3035;49.928;8.410;2023-10-09T05:30:57;23.73;;;7.60;;
6013;SDS011;3035;49.928;8.410;2023-10-09T05:33:38;13.27;;;7.70;;
6013;SDS011;3035;49.928;8.410;2023-10-09T05:36:06;11.47;;;6.97;;
6013;SDS011;3035;49.928;8.410;2023-10-09T05:38:44;16.73;;;8.00;;
6013;SDS011;3035;49.928;8.410;2023-10-09T05:41:14;18.70;;;7.43;;
6013;SDS011;3035;49.928;8.410;2023-10-09T05:43:47;21.27;;;7.73;;
6013;SDS011;3035;49.928;8.410;2023-10-09T05:46:21;21.10;;;7.00;;
6013;SDS011;3035;49.928;8.410;2023-10-09T05:48:49;14.30;;;7.10;;
6013;SDS011;3035;49.928;8.410;2023-10-09T05:51:17;14.47;;;6.83;;
6013;SDS011;3035;49.928;8.410;2023-10-09T05:54:01;22.43;;;8.07;;
6013;SDS011;3035;49.928;8.410;2023-10-09T05:56:35;14.70;;;7.70;;
6013;SDS011;3035;49.928;8.410;2023-10-09T05:59:23;22.20;;;8.20;;
6013;SDS011;3035;49.928;8.410;2023-10-09T06:01:56;16.40;;;6.67;;
6013;SDS011;3035;49.928;8.410;2023-10-09T06:04:40;16.00;;;6.97;;
6013;SDS011;3035;49.928;8.410;2023-10-09T06:07:13;15.13;;;7.10;;
6013;SDS011;3035;49.928;8.410;2023-10-09T06:09:42;12.80;;;6.70;;
6013;SDS011;3035;49.928;8.410;2023-10-09T06:12:15;16.77;;;8.10;;
6013;SDS011;3035;49.928;8.410;2023-10-09T06:14:49;20.73;;;7.30;;
6013;SDS011;3035;49.928;8.410;2023-10-09T06:17:17;19.90;;;8.30;;
6013;SDS011;3035;49.928;8.410;2023-10-09T06:19:50;16.57;;;7.80;;
6013;SDS011;3035;49.928;8.410;2023-10-09T06:22:18;24.37;;;7.37;;
6013;SDS011;3035;49.928;8.410;2023-10-09T06:24:54;17.77;;;7.20;;
6013;SDS011;3035;49.928;8.410;2023-10-09T06:27:22;11.63;;;6.00;;
6013;SDS011;3035;49.928;8.410;2023-10-09T06:29:53;17.63;;;8.20;;
6013;SDS011;3035;49.928;8.410;2023-10-09T06:32:36;13.03;;;7.40;;
6013;SDS011;3035;49.928;8.410;2023-10-09T06:35:05;13.77;;;6.30;;
6013;SDS011;3035;49.928;8.410;2023-10-09T06:37:39;16.77;;;7.30;;
6013;SDS011;3035;49.928;8.410;2023-10-09T06:40:07;14.70;;;7.10;;
6013;SDS011;3035;49.928;8.410;2023-10-09T06:42:51;13.53;;;7.47;;
6013;SDS011;3035;49.928;8.410;2023-10-09T06:45:19;14.50;;;7.13;;
6013;SDS011;3035;49.928;8.410;2023-10-09T06:47:48;14.03;;;6.90;;
6013;SDS011;3035;49.928;8.410;2023-10-09T06:50:22;13.13;;;6.67;;
6013;SDS011;3035;49.928;8.410;2023-10-09T06:52:51;20.50;;;7.53;;
6013;SDS011;3035;49.928;8.410;2023-10-09T06:55:26;22.43;;;6.20;;
6013;SDS011;3035;49.928;8.410;2023-10-09T06:58:00;16.47;;;6.97;;
6013;SDS011;3035;49.928;8.410;2023-10-09T07:00:28;19.00;;;7.00;;
6013;SDS011;3035;49.928;8.410;2023-10-09T07:03:18;15.63;;;7.80;;
6013;SDS011;3035;49.928;8.410;2023-10-09T07:05:46;17.80;;;6.80;;
6013;SDS011;3035;49.928;8.410;2023-10-09T07:08:15;13.80;;;5.83;;
6013;SDS011;3035;49.928;8.410;2023-10-09T07:10:49;21.50;;;6.47;;
6013;SDS011;3035;49.928;8.410;2023-10-09T07:13:17;20.03;;;6.50;;
6013;SDS011;3035;49.928;8.410;2023-10-09T07:15:45;15.77;;;6.80;;
6013;SDS011;3035;49.928;8.410;2023-10-09T07:18:19;16.40;;;7.40;;
6013;SDS011;3035;49.928;8.410;2023-10-09T07:20:47;15.93;;;5.73;;
6013;SDS011;3035;49.928;8.410;2023-10-09T07:23:30;20.33;;;6.47;;
6013;SDS011;3035;49.928;8.410;2023-10-09T07:26:01;14.43;;;7.37;;
6013;SDS011;3035;49.928;8.410;2023-10-09T07:28:29;16.63;;;5.80;;
6013;SDS011;3035;49.928;8.410;2023-10-09T07:31:03;13.73;;;7.27;;
6013;SDS011;3035;49.928;8.410;2023-10-09T07:33:31;15.00;;;5.60;;
6013;SDS011;3035;49.928;8.410;2023-10-09T07:36:01;15.60;;;6.93;;
6013;SDS011;3035;49.928;8.410;2023-10-09T07:38:35;12.97;;;6.93;;
6013;SDS011;3035;49.928;8.410;2023-10-09T07:41:03;13.10;;;6.50;;
6013;SDS011;3035;49.928;8.410;2023-10-09T07:43:46;17.13;;;6.47;;
6013;SDS011;3035;49.928;8.410;2023-10-09T07:46:15;12.90;;;6.77;;
6013;SDS011;3035;49.928;8.410;2023-10-09T07:48:48;15.53;;;6.33;;
6013;SDS011;3035;49.928;8.410;2023-10-09T07:51:20;17.27;;;6.80;;
6013;SDS011;3035;49.928;8.410;2023-10-09T07:53:50;12.53;;;5.80;;
6013;SDS011;3035;49.928;8.410;2023-10-09T07:56:23;12.40;;;6.33;;
6013;SDS011;3035;49.928;8.410;2023-10-09T07:58:51;18.53;;;6.80;;
6013;SDS011;3035;49.928;8.410;2023-10-09T08:01:20;17.77;;;5.90;;
6013;SDS011;3035;49.928;8.410;2023-10-09T08:03:50;19.10;;;5.47;;
6013;SDS011;3035;49.928;8.410;2023-10-09T08:06:24;9.83;;;5.77;;
6013;SDS011;3035;49.928;8.410;2023-10-09T08:09:11;18.27;;;6.20;;
6013;SDS011;3035;49.928;8.410;2023-10-09T08:11:47;24.43;;;5.57;;
6013;SDS011;3035;49.928;8.410;2023-10-09T08:14:20;15.53;;;5.83;;
6013;SDS011;3035;49.928;8.410;2023-10-09T08:16:55;12.63;;;5.93;;
6013;SDS011;3035;49.928;8.410;2023-10-09T08:19:29;19.23;;;5.63;;
6013;SDS011;3035;49.928;8.410;2023-10-09T08:21:59;19.07;;;5.70;;
6013;SDS011;3035;49.928;8.410;2023-10-09T08:24:33;18.63;;;6.43;;
6013;SDS011;3035;49.928;8.410;2023-10-09T08:27:03;19.10;;;7.63;;
6013;SDS011;3035;49.928;8.410;2023-10-09T08:29:36;15.27;;;5.53;;
6013;SDS011;3035;49.928;8.410;2023-10-09T08:32:05;13.43;;;6.50;;
6013;SDS011;3035;49.928;8.410;2023-10-09T08:34:33;12.80;;;5.40;;
6013;SDS011;3035;49.928;8.410;2023-10-09T08:37:01;18.43;;;5.87;;
6013;SDS011;3035;49.928;8.410;2023-10-09T08:39:29;23.90;;;6.50;;
6013;SDS011;3035;49.928;8.410;2023-10-09T08:41:57;11.93;;;5.60;;
6013;SDS011;3035;49.928;8.410;2023-10-09T08:44:26;17.03;;;6.13;;
6013;SDS011;3035;49.928;8.410;2023-10-09T08:46:54;15.23;;;6.07;;
6013;SDS011;3035;49.928;8.410;2023-10-09T08:49:22;12.87;;;5.67;;
6013;SDS011;3035;49.928;8.410;2023-10-09T08:51:50;11.90;;;6.03;;
6013;SDS011;3035;49.928;8.410;2023-10-09T08:54:18;13.90;;;5.20;;
6013;SDS011;3035;49.928;8.410;2023-10-09T08:56:47;12.77;;;6.00;;
6013;SDS011;3035;49.928;8.410;2023-10-09T08:59:17;12.73;;;6.23;;
6013;SDS011;3035;49.928;8.410;2023-10-09T09:01:46;13.00;;;5.30;;
6013;SDS011;3035;49.928;8.410;2023-10-09T09:07:07;11.03;;;5.47;;
6013;SDS011;3035;49.928;8.410;2023-10-09T09:09:54;19.60;;;7.20;;
6013;SDS011;3035;49.928;8.410;2023-10-09T09:12:20;13.30;;;5.20;;
6013;SDS011;3035;49.928;8.410;2023-10-09T09:14:47;19.17;;;5.43;;
6013;SDS011;3035;49.928;8.410;2023-10-09T09:17:15;19.90;;;5.33;;
6013;SDS011;3035;49.928;8.410;2023-10-09T09:19:43;15.13;;;7.20;;
6013;SDS011;3035;49.928;8.410;2023-10-09T09:22:12;12.37;;;6.07;;
6013;SDS011;3035;49.928;8.410;2023-10-09T09:24:40;15.30;;;7.50;;
6013;SDS011;3035;49.928;8.410;2023-10-09T09:27:08;18.43;;;6.80;;
6013;SDS011;3035;49.928;8.410;2023-10-09T09:29:40;19.03;;;6.10;;
6013;SDS011;3035;49.928;8.410;2023-10-09T09:32:08;14.63;;;6.00;;
6013;SDS011;3035;49.928;8.410;2023-10-09T09:34:46;20.93;;;6.00;;
6013;SDS011;3035;49.928;8.410;2023-10-09T09:37:22;18.20;;;5.27;;
6013;SDS011;3035;49.928;8.410;2023-10-09T09:39:52;16.20;;;4.83;;
6013;SDS011;3035;49.928;8.410;2023-10-09T09:42:20;9.57;;;5.40;;
6013;SDS011;3035;49.928;8.410;2023-10-09T09:44:48;15.13;;;5.97;;
6013;SDS011;3035;49.928;8.410;2023-10-09T09:47:16;13.63;;;5.23;;
6013;SDS011;3035;49.928;8.410;2023-10-09T09:49:51;15.23;;;4.77;;
6013;SDS011;3035;49.928;8.410;2023-10-09T09:52:19;22.17;;;5.43;;
6013;SDS011;3035;49.928;8.410;2023-10-09T09:54:48;12.87;;;4.60;;
6013;SDS011;3035;49.928;8.410;2023-10-09T09:57:16;15.80;;;5.27;;
6013;SDS011;3035;49.928;8.410;2023-10-09T09:59:44;11.20;;;4.10;;
6013;SDS011;3035;49.928;8.410;2023-10-09T10:02:20;11.03;;;4.53;;
6013;SDS011;3035;49.928;8.410;2023-10-09T10:04:46;13.63;;;5.17;;
6013;SDS011;3035;49.928;8.410;2023-10-09T10:07:14;12.47;;;5.27;;
6013;SDS011;3035;49.928;8.410;2023-10-09T10:09:42;20.67;;;4.90;;
6013;SDS011;3035;49.928;8.410;2023-10-09T10:12:11;10.10;;;4.77;;
6013;SDS011;3035;49.928;8.410;2023-10-09T10:14:57;15.53;;;4.33;;
6013;SDS011;3035;49.928;8.410;2023-10-09T10:17:26;11.40;;;4.77;;
6013;SDS011;3035;49.928;8.410;2023-10-09T10:20:00;10.13;;;4.10;;
6013;SDS011;3035;49.928;8.410;2023-10-09T10:22:29;11.30;;;4.20;;
6013;SDS011;3035;49.928;8.410;2023-10-09T10:24:57;8.87;;;4.23;;
6013;SDS011;3035;49.928;8.410;2023-10-09T10:27:26;11.87;;;5.80;;
6013;SDS011;3035;49.928;8.410;2023-10-09T10:32:55;8.53;;;5.30;;
6013;SDS011;3035;49.928;8.410;2023-10-09T10:35:24;10.20;;;4.50;;
6013;SDS011;3035;49.928;8.410;2023-10-09T10:38:02;14.17;;;4.30;;
6013;SDS011;3035;49.928;8.410;2023-10-09T10:40:31;9.63;;;4.20;;
6013;SDS011;3035;49.928;8.410;2023-10-09T10:43:05;15.23;;;4.23;;
6013;SDS011;3035;49.928;8.410;2023-10-09T10:45:36;19.40;;;4.00;;
6013;SDS011;3035;49.928;8.410;2023-10-09T10:48:05;9.10;;;4.57;;
6013;SDS011;3035;49.928;8.410;2023-10-09T10:50:32;9.33;;;4.10;;
6013;SDS011;3035;49.928;8.410;2023-10-09T10:53:08;10.43;;;4.77;;
6013;SDS011;3035;49.928;8.410;2023-10-09T10:55:39;12.00;;;5.23;;
6013;SDS011;3035;49.928;8.410;2023-10-09T11:00:43;12.67;;;5.70;;
6013;SDS011;3035;49.928;8.410;2023-10-09T11:03:18;11.20;;;4.70;;
6013;SDS011;3035;49.928;8.410;2023-10-09T11:06:01;13.83;;;5.20;;
6013;SDS011;3035;49.928;8.410;2023-10-09T11:08:30;13.67;;;4.83;;
6013;SDS011;3035;49.928;8.410;2023-10-09T11:11:14;13.00;;;5.07;;
6013;SDS011;3035;49.928;8.410;2023-10-09T11:13:42;9.90;;;4.67;;
6013;SDS011;3035;49.928;8.410;2023-10-09T11:16:15;18.00;;;6.20;;
6013;SDS011;3035;49.928;8.410;2023-10-09T11:18:58;16.93;;;5.10;;
6013;SDS011;3035;49.928;8.410;2023-10-09T11:21:27;9.50;;;4.50;;
6013;SDS011;3035;49.928;8.410;2023-10-09T11:23:57;13.70;;;4.73;;
6013;SDS011;3035;49.928;8.410;2023-10-09T11:26:26;9.53;;;4.73;;
6013;SDS011;3035;49.928;8.410;2023-10-09T11:31:56;13.30;;;5.30;;
6013;SDS011;3035;49.928;8.410;2023-10-09T11:34:30;9.90;;;4.50;;
6013;SDS011;3035;49.928;8.410;2023-10-09T11:36:59;10.03;;;5.10;;
6013;SDS011;3035;49.928;8.410;2023-10-09T11:39:28;14.10;;;4.27;;
6013;SDS011;3035;49.928;8.410;2023-10-09T11:42:01;11.80;;;4.17;;
6013;SDS011;3035;49.928;8.410;2023-10-09T11:44:38;11.43;;;4.37;;
6013;SDS011;3035;49.928;8.410;2023-10-09T11:47:07;10.73;;;5.23;;
6013;SDS011;3035;49.928;8.410;2023-10-09T11:52:25;12.33;;;4.43;;
6013;SDS011;3035;49.928;8.410;2023-10-09T11:54:59;18.30;;;4.93;;
6013;SDS011;3035;49.928;8.410;2023-10-09T11:57:27;15.10;;;5.03;;
6013;SDS011;3035;49.928;8.410;2023-10-09T11:59:59;11.50;;;4.03;;
6013;SDS011;3035;49.928;8.410;2023-10-09T12:02:27;8.60;;;5.00;;
6013;SDS011;3035;49.928;8.410;2023-10-09T12:04:56;15.23;;;4.90;;
6013;SDS011;3035;49.928;8.410;2023-10-09T12:07:25;237.17;;;15.00;;
6013;SDS011;3035;49.928;8.410;2023-10-09T12:09:54;17.13;;;4.60;;
6013;SDS011;3035;49.928;8.410;2023-10-09T12:12:23;7.50;;;4.30;;
6013;SDS011;3035;49.928;8.410;2023-10-09T12:14:52;9.10;;;4.80;;
6013;SDS011;3035;49.928;8.410;2023-10-09T12:17:20;7.70;;;3.80;;
6013;SDS011;3035;49.928;8.410;2023-10-09T12:19:48;9.40;;;3.60;;
6013;SDS011;3035;49.928;8.410;2023-10-09T12:22:17;8.83;;;4.20;;
6013;SDS011;3035;49.928;8.410;2023-10-09T12:24:45;13.70;;;4.33;;
6013;SDS011;3035;49.928;8.410;2023-10-09T12:27:15;9.70;;;4.30;;
6013;SDS011;3035;49.928;8.410;2023-10-09T12:29:43;13.40;;;4.23;;
6013;SDS011;3035;49.928;8.410;2023-10-09T12:32:12;8.37;;;4.27;;
6013;SDS011;3035;49.928;8.410;2023-10-09T12:34:41;11.60;;;4.47;;
6013;SDS011;3035;49.928;8.410;2023-10-09T12:37:10;18.50;;;4.13;;
6013;SDS011;3035;49.928;8.410;2023-10-09T12:39:38;18.73;;;4.80;;
6013;SDS011;3035;49.928;8.410;2023-10-09T12:42:06;14.10;;;5.33;;
6013;SDS011;3035;49.928;8.410;2023-10-09T12:44:35;10.07;;;4.00;;
6013;SDS011;3035;49.928;8.410;2023-10-09T12:47:06;15.20;;;4.80;;
6013;SDS011;3035;49.928;8.410;2023-10-09T12:49:33;7.90;;;4.20;;
6013;SDS011;3035;49.928;8.410;2023-10-09T12:52:01;8.53;;;3.90;;
6013;SDS011;3035;49.928;8.410;2023-10-09T12:54:30;9.00;;;4.27;;
6013;SDS011;3035;49.928;8.410;2023-10-09T12:56:58;10.40;;;3.93;;
6013;SDS011;3035;49.928;8.410;2023-10-09T12:59:26;12.90;;;4.40;;
6013;SDS011;3035;49.928;8.410;2023-10-09T13:01:54;8.83;;;3.47;;
6013;SDS011;3035;49.928;8.410;2023-10-09T13:04:24;13.37;;;4.40;;
6013;SDS011;3035;49.928;8.410;2023-10-09T13:06:53;7.73;;;3.90;;
6013;SDS011;3035;49.928;8.410;2023-10-09T13:09:21;10.27;;;3.70;;
6013;SDS011;3035;49.928;8.410;2023-10-09T13:11:51;12.60;;;4.73;;
6013;SDS011;3035;49.928;8.410;2023-10-09T13:14:20;9.90;;;4.33;;
6013;SDS011;3035;49.928;8.410;2023-10-09T13:16:48;7.63;;;4.40;;
6013;SDS011;3035;49.928;8.410;2023-10-09T13:19:17;14.83;;;4.70;;
6013;SDS011;3035;49.928;8.410;2023-10-09T13:21:45;9.77;;;4.10;;
6013;SDS011;3035;49.928;8.410;2023-10-09T13:24:13;8.33;;;4.27;;
6013;SDS011;3035;49.928;8.410;2023-10-09T13:26:43;14.00;;;4.87;;
6013;SDS011;3035;49.928;8.410;2023-10-09T13:29:12;7.87;;;4.37;;
6013;SDS011;3035;49.928;8.410;2023-10-09T13:31:40;7.30;;;4.17;;
6013;SDS011;3035;49.928;8.410;2023-10-09T13:34:08;13.03;;;3.80;;
6013;SDS011;3035;49.928;8.410;2023-10-09T13:36:36;12.53;;;4.00;;
6013;SDS011;3035;49.928;8.410;2023-10-09T13:39:05;7.40;;;4.17;;
6013;SDS011;3035;49.928;8.410;2023-10-09T13:41:38;10.53;;;3.20;;
6013;SDS011;3035;49.928;8.410;2023-10-09T13:44:06;8.07;;;4.00;;
6013;SDS011;3035;49.928;8.410;2023-10-09T13:46:34;15.53;;;3.70;;
6013;SDS011;3035;49.928;8.410;2023-10-09T13:49:09;13.43;;;4.40;;
6013;SDS011;3035;49.928;8.410;2023-10-09T13:51:39;10.40;;;4.80;;
6013;SDS011;3035;49.928;8.410;2023-10-09T13:54:10;19.20;;;4.70;;
6013;SDS011;3035;49.928;8.410;2023-10-09T13:56:38;11.60;;;4.13;;
6013;SDS011;3035;49.928;8.410;2023-10-09T13:59:06;10.27;;;4.73;;
6013;SDS011;3035;49.928;8.410;2023-10-09T14:01:34;10.03;;;4.10;;
6013;SDS011;3035;49.928;8.410;2023-10-09T14:04:02;18.00;;;4.50;;
6013;SDS011;3035;49.928;8.410;2023-10-09T14:06:31;13.67;;;5.20;;
6013;SDS011;3035;49.928;8.410;2023-10-09T14:08:59;16.57;;;5.37;;
6013;SDS011;3035;49.928;8.410;2023-10-09T14:11:27;13.73;;;5.10;;
6013;SDS011;3035;49.928;8.410;2023-10-09T14:13:55;14.57;;;5.10;;
6013;SDS011;3035;49.928;8.410;2023-10-09T14:16:23;13.07;;;4.40;;
6013;SDS011;3035;49.928;8.410;2023-10-09T14:18:52;8.23;;;4.20;;
6013;SDS011;3035;49.928;8.410;2023-10-09T14:21:20;14.27;;;4.33;;
6013;SDS011;3035;49.928;8.410;2023-10-09T14:23:49;7.30;;;3.73;;
6013;SDS011;3035;49.928;8.410;2023-10-09T14:26:17;10.27;;;4.60;;
6013;SDS011;3035;49.928;8.410;2023-10-09T14:28:45;11.23;;;4.57;;
6013;SDS011;3035;49.928;8.410;2023-10-09T14:31:13;8.40;;;3.30;;
6013;SDS011;3035;49.928;8.410;2023-10-09T14:33:41;14.77;;;4.97;;
6013;SDS011;3035;49.928;8.410;2023-10-09T14:36:10;18.27;;;4.90;;
6013;SDS011;3035;49.928;8.410;2023-10-09T14:38:38;11.53;;;4.70;;
6013;SDS011;3035;49.928;8.410;2023-10-09T14:41:06;11.60;;;4.63;;
6013;SDS011;3035;49.928;8.410;2023-10-09T14:43:34;13.17;;;5.13;;
6013;SDS011;3035;49.928;8.410;2023-10-09T14:46:03;12.43;;;4.40;;
6013;SDS011;3035;49.928;8.410;2023-10-09T14:48:31;10.60;;;5.23;;
6013;SDS011;3035;49.928;8.410;2023-10-09T14:50:59;15.53;;;4.53;;
6013;SDS011;3035;49.928;8.410;2023-10-09T14:53:27;11.60;;;4.77;;
6013;SDS011;3035;49.928;8.410;2023-10-09T14:55:56;10.23;;;4.20;;
6013;SDS011;3035;49.928;8.410;2023-10-09T14:58:24;12.57;;;4.93;;
6013;SDS011;3035;49.928;8.410;2023-10-09T15:00:52;12.97;;;4.60;;
6013;SDS011;3035;49.928;8.410;2023-10-09T15:03:20;16.80;;;5.60;;
6013;SDS011;3035;49.928;8.410;2023-10-09T15:05:49;8.87;;;4.37;;
6013;SDS011;3035;49.928;8.410;2023-10-09T15:08:16;10.00;;;5.00;;
6013;SDS011;3035;49.928;8.410;2023-10-09T15:10:45;12.27;;;4.83;;
6013;SDS011;3035;49.928;8.410;2023-10-09T15:13:15;11.30;;;4.40;;
6013;SDS011;3035;49.928;8.410;2023-10-09T15:15:44;23.10;;;5.20;;
6013;SDS011;3035;49.928;8.410;2023-10-09T15:18:12;16.77;;;4.47;;
6013;SDS011;3035;49.928;8.410;2023-10-09T15:20:40;15.17;;;4.40;;
6013;SDS011;3035;49.928;8.410;2023-10-09T15:23:08;25.33;;;5.37;;
6013;SDS011;3035;49.928;8.410;2023-10-09T15:25:36;8.30;;;4.57;;
6013;SDS011;3035;49.928;8.410;2023-10-09T15:28:05;17.13;;;5.70;;
6013;SDS011;3035;49.928;8.410;2023-10-09T15:30:34;13.93;;;6.20;;
6013;SDS011;3035;49.928;8.410;2023-10-09T15:33:03;11.00;;;4.40;;
6013;SDS011;3035;49.928;8.410;2023-10-09T15:35:31;14.90;;;7.90;;
6013;SDS011;3035;49.928;8.410;2023-10-09T15:38:01;16.53;;;6.80;;